Time;durP1;ratioP1;P1;durP2;ratioP2;P2;SDS_P1;SDS_P2;PMS_P1;PMS_P2;Temp;Humidity;BMP_temperature;BMP_pressure;BME280_temperature;BME280_humidity;BME280_pressure;Samples;Min_cycle;Max_cycle;Signal;HPM_P1;HPM_P2
2022/12/15 00:43:19;;;;;;;5.10;4.10;;;;;;;19.97;43.81;95447.78;10496038;28;20059;-50
2022/12/15 00:48:39;;;;;;;4.95;4.30;;;;;;;19.95;43.90;95458.16;10509414;28;20685;-52
2022/12/15 01:22:10;;;;;;;4.90;4.05;;;;;;;19.80;43.53;95486.06;10517576;28;20506;-50
2022/12/15 01:27:30;;;;;;;3.90;3.47;;;;;;;19.77;43.54;95498.38;10502738;28;20049;-50
2022/12/15 01:32:49;;;;;;;4.20;3.80;;;;;;;19.75;43.58;95492.56;10502984;28;20060;-50
2022/12/15 01:38:09;;;;;;;4.50;4.10;;;;;;;19.74;43.52;95491.78;10502805;28;20071;-51
2022/12/15 01:43:32;;;;;;;4.38;3.90;;;;;;;19.72;43.62;95499.47;10502826;28;20427;-51
2022/12/15 01:49:14;;;;;;;4.35;3.95;;;;;;;19.69;43.57;95500.13;10502594;28;20063;-51
2022/12/15 01:54:42;;;;;;;4.32;3.92;;;;;;;19.67;43.22;95504.34;10502018;28;20059;-51
2022/12/15 02:00:04;;;;;;;3.90;3.47;;;;;;;19.64;43.31;95513.13;10486394;28;20052;-50
2022/12/15 02:05:26;;;;;;;4.32;3.55;;;;;;;19.63;43.44;95525.88;10486922;28;20102;-50
2022/12/15 02:10:59;;;;;;;4.43;3.47;;;;;;;19.61;43.44;95535.47;10487927;28;20408;-50
2022/12/15 02:16:34;;;;;;;4.05;3.65;;;;;;;19.59;43.44;95532.34;10486864;28;20389;-51
2022/12/15 02:22:00;;;;;;;4.47;3.30;;;;;;;19.56;43.45;95537.31;10500358;28;20052;-51
2022/12/15 02:27:47;;;;;;;4.55;3.65;;;;;;;19.54;43.14;95546.91;10501295;28;20056;-49
2022/12/15 02:33:20;;;;;;;4.03;3.58;;;;;;;19.51;43.07;95553.03;10486401;28;20102;-51
2022/12/15 02:38:43;;;;;;;4.05;3.55;;;;;;;19.49;43.11;95574.97;10485401;28;20056;-51
2022/12/15 02:44:13;;;;;;;3.97;3.58;;;;;;;19.47;43.07;95579.97;10500663;28;20068;-51
2022/12/15 02:49:48;;;;;;;5.22;3.95;;;;;;;19.45;42.84;95570.66;10491100;28;20044;-49
2022/12/15 02:55:20;;;;;;;4.13;3.72;;;;;;;19.42;42.86;95569.41;10499809;28;20056;-49
2022/12/15 03:00:44;;;;;;;3.80;3.42;;;;;;;19.41;42.68;95577.91;10499814;28;20066;-51
2022/12/15 03:06:04;;;;;;;4.22;3.83;;;;;;;19.38;42.73;95584.75;10484365;28;20071;-51
2022/12/15 03:11:24;;;;;;;4.07;3.67;;;;;;;19.36;42.77;95573.53;10499508;28;20048;-49
2022/12/15 03:16:43;;;;;;;4.10;3.65;;;;;;;19.34;42.64;95575.81;10477589;28;20048;-50
2022/12/15 03:22:03;;;;;;;4.10;3.70;;;;;;;19.32;42.55;95599.69;10498710;28;20056;-50
2022/12/15 03:27:23;;;;;;;3.92;3.53;;;;;;;19.29;42.51;95616.59;10491130;28;20488;-52
2022/12/15 03:32:42;;;;;;;4.13;3.63;;;;;;;19.28;42.52;95620.41;10497318;28;20106;-49
2022/12/15 03:38:01;;;;;;;3.97;3.60;;;;;;;19.26;42.49;95623.47;10498444;28;20075;-50
2022/12/15 03:43:21;;;;;;;4.53;3.65;;;;;;;19.23;42.46;95617.97;10498276;28;20079;-52
2022/12/15 03:48:40;;;;;;;4.07;3.67;;;;;;;19.21;42.43;95636.44;10497843;28;20059;-51
2022/12/15 03:54:00;;;;;;;4.35;3.85;;;;;;;19.19;42.46;95633.31;10497609;28;20067;-50
2022/12/15 03:59:19;;;;;;;4.57;3.55;;;;;;;19.16;42.55;95635.56;10497452;28;20052;-49
2022/12/15 04:04:38;;;;;;;3.85;3.45;;;;;;;19.14;42.38;95645.94;10497438;28;20056;-51
2022/12/15 04:09:58;;;;;;;3.88;3.47;;;;;;;19.12;42.38;95648.22;10496790;28;20060;-49
2022/12/15 04:15:17;;;;;;;3.95;3.58;;;;;;;19.10;42.48;95647.78;10497041;28;20052;-50
2022/12/15 04:20:37;;;;;;;4.03;3.63;;;;;;;19.08;42.39;95679.72;10496762;28;20051;-51
2022/12/15 05:33:35;;;;;;;4.10;3.70;;;;;;;18.81;42.11;95734.53;10477828;28;20472;-51
2022/12/15 05:38:55;;;;;;;4.78;4.03;;;;;;;18.80;42.15;95747.25;10493195;28;20063;-50
2022/12/15 05:44:14;;;;;;;4.47;4.07;;;;;;;18.81;42.34;95759.59;10494430;28;20048;-48
2022/12/15 05:49:34;;;;;;;4.13;3.67;;;;;;;18.80;42.34;95765.34;10507267;28;20035;-49
2022/12/15 05:54:53;;;;;;;5.70;3.90;;;;;;;18.83;42.46;95768.13;10510278;28;20553;-47
2022/12/15 06:00:13;;;;;;;4.22;3.67;;;;;;;18.84;42.33;95769.72;10501569;28;20045;-47
2022/12/15 06:05:33;;;;;;;5.55;4.00;;;;;;;18.86;42.51;95777.47;10499339;28;20048;-50
2022/12/15 06:10:53;;;;;;;4.10;3.75;;;;;;;18.87;42.68;95773.63;10501498;28;20052;-49
2022/12/15 06:16:15;;;;;;;3.85;3.40;;;;;;;18.89;43.06;95790.28;10501089;28;20102;-51
2022/12/15 06:21:35;;;;;;;6.00;4.00;;;;;;;18.90;43.41;95805.34;10514343;28;20044;-50
2022/12/15 06:26:55;;;;;;;5.25;3.72;;;;;;;18.90;41.19;95816.16;10500769;28;20068;-49
2022/12/15 06:32:14;;;;;;;6.38;5.30;;;;;;;18.90;41.78;95827.72;10499300;28;20056;-50
2022/12/15 06:37:33;;;;;;;7.03;6.05;;;;;;;18.93;41.66;95829.75;10500268;28;20090;-49
2022/12/15 06:42:53;;;;;;;6.13;5.53;;;;;;;18.94;41.62;95839.41;10497622;28;20056;-48
2022/12/15 06:48:12;;;;;;;6.55;5.57;;;;;;;18.96;41.58;95841.75;10497811;28;20048;-50
2022/12/15 06:53:35;;;;;;;6.38;5.78;;;;;;;18.98;41.59;95844.13;10498097;28;20063;-50
2022/12/15 06:58:55;;;;;;;6.70;6.00;;;;;;;19.01;41.64;95852.28;10513300;28;20075;-50
2022/12/15 07:04:14;;;;;;;6.07;5.47;;;;;;;19.02;41.57;95851.19;10498950;28;20504;-53
2022/12/15 07:09:34;;;;;;;6.40;5.43;;;;;;;19.04;41.63;95870.50;10499025;28;20082;-49
2022/12/15 07:14:53;;;;;;;5.93;5.30;;;;;;;19.06;41.64;95883.66;10499414;28;20052;-50
2022/12/15 07:20:12;;;;;;;6.30;5.70;;;;;;;19.09;41.78;95880.28;10512480;28;20056;-50
2022/12/15 07:25:32;;;;;;;5.40;4.90;;;;;;;19.10;41.78;95869.13;10498959;28;20071;-49
2022/12/15 07:30:52;;;;;;;5.47;4.90;;;;;;;19.13;42.00;95873.06;10512261;28;20403;-48
2022/12/15 07:36:12;;;;;;;6.03;5.05;;;;;;;19.16;41.88;95878.56;10503628;28;20055;-50
2022/12/15 07:41:31;;;;;;;6.32;5.70;;;;;;;19.20;42.15;95896.78;10501331;28;20057;-49
2022/12/15 07:46:51;;;;;;;5.85;5.13;;;;;;;19.21;42.22;95880.25;10494911;28;20044;-50
2022/12/15 07:52:12;;;;;;;5.55;5.00;;;;;;;19.26;42.21;95892.69;10511387;28;20037;-49
2022/12/15 07:57:32;;;;;;;6.72;5.32;;;;;;;19.27;42.03;95899.69;10495376;28;20048;-51
2022/12/15 08:02:51;;;;;;;6.38;5.47;;;;;;;19.31;41.89;95911.38;10496756;28;20045;-50
2022/12/15 08:08:11;;;;;;;6.75;5.45;;;;;;;19.32;42.01;95913.72;10494001;28;20052;-50
2022/12/15 08:13:31;;;;;;;5.57;5.03;;;;;;;19.36;42.09;95932.72;10496350;28;20064;-50
2022/12/15 08:18:51;;;;;;;5.28;4.78;;;;;;;19.39;42.15;95945.53;10502042;28;20040;-51
2022/12/15 08:24:12;;;;;;;10.68;8.10;;;;;;;19.41;39.42;95947.91;10497251;28;20079;-50
2022/12/15 08:29:32;;;;;;;9.02;7.50;;;;;;;19.45;41.20;95936.06;10496804;28;20106;-51
2022/12/15 08:34:51;;;;;;;11.05;7.55;;;;;;;19.46;41.37;95940.31;10483490;28;20091;-51
2022/12/15 08:40:11;;;;;;;9.80;7.07;;;;;;;19.50;41.79;95952.03;10496299;28;20109;-51
2022/12/15 08:45:31;;;;;;;9.38;6.88;;;;;;;19.55;41.75;95959.88;10493770;28;20491;-49
2022/12/15 08:50:50;;;;;;;9.35;6.45;;;;;;;19.59;41.64;95956.50;10509566;28;20045;-50
2022/12/15 08:56:14;;;;;;;14.10;7.00;;;;;;;19.61;41.90;95943.44;10496349;28;20053;-50
2022/12/15 09:01:38;;;;;;;8.95;6.18;;;;;;;19.66;42.14;95962.88;10495303;28;20508;-51
2022/12/15 09:06:57;;;;;;;9.80;6.55;;;;;;;19.68;42.13;95970.63;10494428;28;20408;-52
2022/12/15 09:12:17;;;;;;;10.13;6.35;;;;;;;19.70;41.99;95971.88;10495808;28;20182;-49
2022/12/15 09:17:36;;;;;;;7.43;6.28;;;;;;;19.73;42.23;95965.78;10494220;28;20053;-49
2022/12/15 09:22:56;;;;;;;12.25;6.55;;;;;;;19.79;42.30;95970.97;10482845;28;20416;-51
2022/12/15 09:28:16;;;;;;;8.88;5.65;;;;;;;19.81;42.29;95955.19;10480300;28;20053;-49
2022/12/15 09:33:36;;;;;;;9.45;6.30;;;;;;;19.85;42.35;95964.16;10503100;28;20060;-51
2022/12/15 09:38:55;;;;;;;8.20;6.50;;;;;;;19.87;42.29;95975.41;10502147;28;20060;-51
2022/12/15 09:44:19;;;;;;;11.25;6.47;;;;;;;19.90;42.21;95978.22;10503120;28;20056;-50
2022/12/15 09:49:57;;;;;;;9.68;6.55;;;;;;;19.92;41.96;95981.34;10502775;28;20056;-47
2022/12/15 09:55:22;;;;;;;13.93;9.52;;;;;;;19.98;41.67;95992.72;10502034;28;20074;-48
2022/12/15 10:00:51;;;;;;;14.63;9.05;;;;;;;20.01;41.08;96002.81;10487478;28;20045;-50
2022/12/15 10:06:19;;;;;;;274.53;112.40;;;;;;;20.03;41.36;96005.97;10486465;28;20048;-49
2022/12/15 10:12:06;;;;;;;128.93;50.30;;;;;;;20.06;42.04;96007.19;10486201;28;20498;-49
2022/12/15 10:17:50;;;;;;;138.38;53.35;;;;;;;20.10;41.79;96008.06;10507701;28;20048;-49
2022/12/15 10:23:15;;;;;;;127.22;47.05;;;;;;;20.13;42.09;95999.25;10499243;28;20487;-50
2022/12/15 10:28:58;;;;;;;103.00;42.10;;;;;;;20.15;42.46;96016.72;10501125;28;20052;-48
2022/12/15 10:34:27;;;;;;;96.82;37.88;;;;;;;20.19;42.41;96008.72;10499239;28;20115;-49
2022/12/15 10:39:48;;;;;;;92.90;36.30;;;;;;;20.23;42.22;96012.28;10499833;28;20056;-49
2022/12/15 10:45:30;;;;;;;88.20;33.97;;;;;;;20.24;42.25;95992.22;10489515;28;20056;-50
2022/12/15 10:51:13;;;;;;;84.65;32.50;;;;;;;20.26;42.81;95989.16;10500696;28;20094;-49
2022/12/15 10:56:33;;;;;;;76.03;31.17;;;;;;;20.27;42.66;95978.00;10484872;28;20081;-50
2022/12/15 11:01:53;;;;;;;62.47;27.33;;;;;;;20.29;42.87;95981.13;10513540;28;20086;-50
2022/12/15 11:07:13;;;;;;;52.58;26.02;;;;;;;20.32;40.56;95975.03;10487678;28;20633;-50
2022/12/15 11:12:51;;;;;;;45.88;25.63;;;;;;;20.40;38.36;95969.78;10484766;28;20060;-51
2022/12/15 11:18:22;;;;;;;43.22;23.95;;;;;;;20.44;37.49;95968.75;10499437;28;20381;-50
2022/12/15 11:24:03;;;;;;;40.53;21.95;;;;;;;20.40;37.80;95951.63;10496428;28;20048;-49
2022/12/15 11:29:36;;;;;;;35.72;20.38;;;;;;;20.35;38.12;95952.69;10495656;28;20055;-51
2022/12/15 11:34:56;;;;;;;35.28;19.67;;;;;;;20.33;38.46;95954.19;10484881;28;20094;-50
2022/12/15 11:40:37;;;;;;;34.30;18.80;;;;;;;20.30;38.51;95938.66;10504093;28;20059;-51
2022/12/15 11:46:23;;;;;;;33.13;18.70;;;;;;;20.29;38.84;95937.09;10498329;28;20052;-52
2022/12/15 11:52:32;;;;;;;36.35;18.55;;;;;;;20.29;39.12;95937.09;10496468;28;20052;-52
2022/12/15 11:58:05;;;;;;;30.25;17.35;;;;;;;20.28;39.62;95960.63;10497500;28;20044;-53
2022/12/15 12:03:53;;;;;;;32.65;17.13;;;;;;;20.28;39.89;95955.22;10496323;28;20178;-53
2022/12/15 12:09:31;;;;;;;30.45;17.50;;;;;;;20.27;40.03;95956.38;10484617;28;20102;-53
2022/12/15 12:15:12;;;;;;;28.50;16.83;;;;;;;20.26;40.24;95954.00;10509870;28;20044;-52
2022/12/15 12:20:39;;;;;;;30.38;16.42;;;;;;;20.24;40.85;95951.63;10497049;28;20048;-52
2022/12/15 12:26:04;;;;;;;28.00;16.33;;;;;;;20.25;41.05;95958.63;10481257;28;20078;-50
2022/12/15 12:31:57;;;;;;;26.77;15.57;;;;;;;20.24;41.26;95943.53;10496533;28;20045;-50
2022/12/15 12:37:29;;;;;;;26.17;15.68;;;;;;;20.22;41.70;95937.69;10496629;28;20060;-50
2022/12/15 12:42:54;;;;;;;23.70;15.10;;;;;;;20.21;42.25;95940.72;10481478;28;20044;-50
2022/12/15 12:48:23;;;;;;;23.98;14.65;;;;;;;20.19;42.36;95949.22;10494229;28;20041;-48
2022/12/15 12:53:42;;;;;;;21.25;14.63;;;;;;;20.18;42.54;95947.63;10496247;28;20102;-48
2022/12/15 12:59:07;;;;;;;23.42;14.38;;;;;;;20.17;42.90;95946.06;10481105;28;20048;-50
2022/12/15 13:04:32;;;;;;;26.48;14.55;;;;;;;20.15;42.76;95945.63;10494993;28;20061;-49
2022/12/15 13:10:07;;;;;;;22.08;14.00;;;;;;;20.13;42.80;95945.19;10503953;28;20055;-49
2022/12/15 13:15:27;;;;;;;21.77;13.45;;;;;;;20.11;42.76;95937.44;10500911;28;20059;-52
2022/12/15 13:20:49;;;;;;;18.15;13.07;;;;;;;20.11;42.81;95961.78;10517564;28;20047;-51
2022/12/15 13:26:09;;;;;;;19.85;12.55;;;;;;;20.10;42.67;95978.34;10488575;28;20060;-49
2022/12/15 13:31:30;;;;;;;17.90;12.50;;;;;;;20.08;42.76;95996.81;10503383;28;20056;-50
2022/12/15 13:36:52;;;;;;;26.88;13.38;;;;;;;20.07;42.67;95992.53;10489513;28;20515;-48
2022/12/15 13:42:11;;;;;;;20.58;12.65;;;;;;;20.06;42.72;95999.09;10502743;28;20079;-51
2022/12/15 13:47:30;;;;;;;20.50;13.38;;;;;;;20.05;42.87;96000.22;10492632;28;20094;-51
2022/12/15 13:52:54;;;;;;;26.75;13.57;;;;;;;20.03;42.97;95976.25;10489087;28;20053;-51
2022/12/15 13:58:16;;;;;;;21.60;12.52;;;;;;;20.03;42.80;95994.38;10502539;28;20049;-50
2022/12/15 14:03:35;;;;;;;19.25;11.98;;;;;;;20.00;42.87;95979.63;10499699;28;20052;-50
2022/12/15 14:08:55;;;;;;;16.90;12.85;;;;;;;19.99;42.88;95974.56;10485174;28;20103;-50
2022/12/15 14:14:18;;;;;;;18.52;12.68;;;;;;;19.97;43.43;95968.72;10501510;28;20365;-50
2022/12/15 14:19:43;;;;;;;19.88;12.27;;;;;;;19.98;43.28;95975.72;10501814;28;20055;-50
2022/12/15 14:25:12;;;;;;;18.52;12.85;;;;;;;19.94;42.77;95976.38;10501431;28;20055;-48
2022/12/15 14:30:32;;;;;;;16.83;11.65;;;;;;;19.93;42.83;95969.44;10499652;28;20044;-50
2022/12/15 14:35:55;;;;;;;17.73;12.75;;;;;;;19.93;41.52;95952.41;10494812;28;20450;-48
2022/12/15 14:41:24;;;;;;;20.67;14.13;;;;;;;19.90;41.67;95972.81;10485302;28;20064;-48
2022/12/15 14:46:47;;;;;;;22.33;13.98;;;;;;;19.86;41.92;95976.56;10501041;28;20053;-47
2022/12/15 14:52:22;;;;;;;18.13;12.70;;;;;;;19.83;42.04;95979.94;10500555;28;20064;-49
2022/12/15 14:57:45;;;;;;;20.52;13.27;;;;;;;19.82;41.76;95984.56;10499824;28;20051;-47
2022/12/15 15:03:14;;;;;;;20.73;13.25;;;;;;;19.80;42.34;95978.72;10499622;28;20055;-48
2022/12/15 15:08:48;;;;;;;41.42;28.23;;;;;;;19.78;42.12;95983.69;10495039;28;20075;-52
2022/12/15 15:14:32;;;;;;;38.83;25.90;;;;;;;19.77;41.53;95982.09;10507613;28;20048;-47
2022/12/15 15:20:06;;;;;;;33.35;22.80;;;;;;;19.74;41.00;95988.22;10473484;28;20056;-48
2022/12/15 15:25:27;;;;;;;31.50;21.38;;;;;;;19.71;41.24;95981.56;10499208;28;20048;-48
2022/12/15 15:30:46;;;;;;;30.55;20.00;;;;;;;19.70;41.45;95979.19;10498338;28;20048;-48
2022/12/15 15:36:09;;;;;;;29.25;19.58;;;;;;;19.69;41.38;95972.22;10485958;28;20056;-49
2022/12/15 15:41:30;;;;;;;26.85;19.40;;;;;;;19.68;41.56;95965.22;10487150;28;20048;-47
2022/12/15 15:46:51;;;;;;;29.05;21.13;;;;;;;19.63;39.66;95981.69;10499035;28;20047;-46
2022/12/15 15:52:12;;;;;;;27.30;19.65;;;;;;;19.64;41.04;95973.25;10498155;28;20408;-53
2022/12/15 15:57:31;;;;;;;25.95;18.48;;;;;;;19.65;41.22;95957.81;9563649;28;10000625;-53
2022/12/15 16:02:51;;;;;;;24.25;18.05;;;;;;;19.66;41.41;95960.19;10410169;28;20071;-45
2022/12/15 16:08:20;;;;;;;27.42;17.52;;;;;;;19.68;41.83;95976.03;10416065;28;20076;-49
2022/12/15 16:13:40;;;;;;;26.50;17.42;;;;;;;19.70;42.03;95992.72;10426778;28;20045;-47
2022/12/15 16:18:59;;;;;;;24.70;17.27;;;;;;;19.69;42.24;95991.91;10412208;28;20054;-48
2022/12/15 16:24:18;;;;;;;22.00;16.35;;;;;;;19.71;42.41;95983.47;10445850;28;20211;-50
2022/12/15 16:29:38;;;;;;;23.02;16.23;;;;;;;19.72;42.45;95975.03;10441852;28;20432;-48
2022/12/15 16:40:36;;;;;;;20.50;15.48;;;;;;;19.76;42.76;95983.25;10284393;28;20055;-48
2022/12/15 17:05:50;;;;;;;21.38;14.25;;;;;;;19.77;42.96;96006.44;10447666;23;20062;-43
2022/12/15 17:11:21;;;;;;;20.92;14.23;;;;;;;19.77;42.87;96002.94;10355969;28;20084;-47
2022/12/15 17:16:40;;;;;;;18.45;14.27;;;;;;;19.76;43.00;95999.47;10366588;28;20065;-45
2022/12/15 17:22:01;;;;;;;19.70;14.13;;;;;;;19.78;43.29;96009.91;10381335;28;20065;-45
2022/12/15 17:27:26;;;;;;;18.33;14.13;;;;;;;19.81;43.11;96006.53;10369028;28;20050;-46
2022/12/15 17:32:47;;;;;;;17.38;13.95;;;;;;;19.79;43.11;96001.47;10371060;28;20057;-48
2022/12/15 17:38:12;;;;;;;19.63;14.55;;;;;;;19.81;43.16;96009.22;10381685;28;20555;-46
2022/12/15 17:43:31;;;;;;;16.73;12.98;;;;;;;19.81;43.26;95998.41;10341010;28;20076;-48
2022/12/15 17:48:51;;;;;;;16.73;12.95;;;;;;;19.84;43.17;95986.94;10379057;23;20085;-80
2022/12/15 17:54:15;;;;;;;17.02;12.88;;;;;;;19.85;42.97;95994.66;10354234;28;20050;-79
2022/12/15 17:59:34;;;;;;;18.35;13.32;;;;;;;19.87;43.10;95978.13;10337471;28;20113;-78
2022/12/15 18:04:58;;;;;;;16.77;12.75;;;;;;;19.87;42.94;95964.59;10327169;28;20074;-79
2022/12/15 18:10:28;;;;;;;17.00;12.35;;;;;;;19.87;43.07;95978.91;10323105;28;20047;-78
2022/12/15 18:21:53;;;;;;;16.83;12.63;;;;;;;19.88;43.24;95980.47;10495030;23;20050;-81
2022/12/15 18:27:24;;;;;;;15.40;11.73;;;;;;;19.90;43.25;95980.13;10364414;28;20054;-83
2022/12/15 18:32:44;;;;;;;15.30;11.73;;;;;;;19.90;43.27;95977.44;10329423;28;20054;-82
2022/12/15 18:43:32;;;;;;;15.07;11.63;;;;;;;19.95;43.30;95977.97;10327367;28;20116;-82
2022/12/15 18:48:54;;;;;;;15.68;10.95;;;;;;;19.96;43.07;95970.66;10334803;28;20055;-84
2022/12/15 18:54:16;;;;;;;15.88;11.50;;;;;;;19.97;43.30;95971.41;10351525;28;20054;-83
2022/12/15 18:59:35;;;;;;;18.60;11.30;;;;;;;19.95;43.58;95964.47;10350474;28;20077;-82
2022/12/15 19:04:54;;;;;;;17.20;11.25;;;;;;;19.96;43.36;95962.53;10334018;28;20055;-81
2022/12/15 19:10:14;;;;;;;17.90;10.80;;;;;;;19.95;43.14;95961.75;10356610;28;20054;-87
2022/12/15 19:15:33;;;;;;;14.35;10.32;;;;;;;19.98;43.18;95946.75;10339671;28;20050;-87
2022/12/15 19:26:31;;;;;;;14.10;11.02;;;;;;;20.00;43.36;95920.16;10372819;28;20057;-85
2022/12/15 19:31:51;;;;;;;12.45;9.98;;;;;;;20.02;43.23;95917.88;10335697;28;20050;-83
2022/12/15 19:37:31;;;;;;;12.50;10.50;;;;;;;20.04;43.44;95896.69;10345444;28;20158;-85
2022/12/15 19:42:51;;;;;;;13.88;10.05;;;;;;;20.06;43.58;95901.75;10317259;28;20130;-84
2022/12/15 19:48:11;;;;;;;13.77;10.05;;;;;;;20.07;43.36;95892.50;10338291;28;20060;-84
2022/12/15 19:53:31;;;;;;;11.88;10.18;;;;;;;20.08;43.48;95894.84;10341180;28;20501;-85
2022/12/15 19:58:53;;;;;;;13.38;10.13;;;;;;;20.09;43.51;95895.63;10344235;28;20077;-83
2022/12/15 20:04:12;;;;;;;12.63;10.20;;;;;;;20.11;43.29;95894.16;10359486;28;20050;-81
2022/12/15 20:09:32;;;;;;;11.75;9.35;;;;;;;20.14;43.10;95892.69;10345208;28;20061;-80
2022/12/15 20:14:51;;;;;;;12.60;8.75;;;;;;;20.15;43.16;95886.94;10340049;28;20050;-80
2022/12/15 20:20:17;;;;;;;12.07;9.95;;;;;;;20.20;43.27;95877.75;10355688;28;20050;-82
2022/12/15 20:25:39;;;;;;;11.07;8.75;;;;;;;20.22;43.00;95882.81;10354927;28;20555;-80
2022/12/15 20:30:58;;;;;;;11.95;9.20;;;;;;;20.24;43.06;95875.13;10330777;28;20061;-81
2022/12/15 20:36:23;;;;;;;11.60;9.07;;;;;;;20.26;42.97;95867.47;10300015;28;20043;-82
2022/12/15 20:41:42;;;;;;;12.68;9.90;;;;;;;20.27;42.88;95853.59;10311238;28;20415;-82
2022/12/15 20:47:02;;;;;;;10.70;9.38;;;;;;;20.30;42.80;95852.09;10332876;28;20130;-81
2022/12/15 20:52:25;;;;;;;10.38;8.65;;;;;;;20.32;42.65;95839.00;10325763;28;20461;-84
2022/12/15 20:57:45;;;;;;;11.98;9.70;;;;;;;20.33;42.77;95822.44;10326106;28;20104;-83
2022/12/15 21:03:32;;;;;;;10.40;8.98;;;;;;;20.36;42.80;95812.81;10309237;28;20425;-83
2022/12/15 21:08:52;;;;;;;13.52;8.90;;;;;;;20.39;42.87;95800.53;10316089;28;20124;-82
2022/12/15 21:14:17;;;;;;;10.63;8.27;;;;;;;20.40;42.98;95799.38;10354933;28;20054;-83
2022/12/15 21:19:37;;;;;;;10.02;8.63;;;;;;;20.40;42.86;95802.84;10337503;28;20204;-83
2022/12/15 21:24:57;;;;;;;11.68;8.85;;;;;;;20.42;42.65;95792.47;10303999;28;20433;-82
2022/12/15 21:30:20;;;;;;;11.63;8.60;;;;;;;20.43;42.92;95795.97;10329007;28;20132;-83
2022/12/15 21:35:40;;;;;;;9.77;8.50;;;;;;;20.43;43.12;95807.56;10331226;28;20042;-83
2022/12/15 21:41:03;;;;;;;10.25;8.45;;;;;;;20.44;42.72;95809.13;10321376;28;20050;-83
2022/12/15 21:46:27;;;;;;;10.75;8.77;;;;;;;20.43;42.77;95807.56;10337105;28;20050;-83
2022/12/15 21:51:57;;;;;;;9.45;8.32;;;;;;;20.45;42.66;95815.34;10346691;28;20398;-83
2022/12/15 21:57:16;;;;;;;11.52;8.52;;;;;;;20.43;42.80;95812.19;10321604;28;20046;-84
2022/12/15 22:02:36;;;;;;;9.82;8.18;;;;;;;20.43;42.53;95812.97;10333447;28;20058;-84
2022/12/15 22:08:08;;;;;;;9.95;7.95;;;;;;;20.42;42.80;95814.09;10329426;28;20065;-84
2022/12/15 22:13:31;;;;;;;9.52;7.97;;;;;;;20.43;42.46;95817.63;10339312;28;20390;-83
2022/12/15 22:18:54;;;;;;;8.77;7.88;;;;;;;20.40;42.58;95818.31;10355196;28;20050;-83
2022/12/15 22:24:14;;;;;;;9.95;8.18;;;;;;;20.40;42.58;95821.00;10354260;28;20062;-83
2022/12/15 22:29:33;;;;;;;8.85;7.72;;;;;;;20.39;42.70;95795.13;10335784;28;20099;-82
2022/12/15 22:34:53;;;;;;;10.00;7.90;;;;;;;20.37;42.67;95789.28;10339077;28;20387;-83
2022/12/15 22:40:13;;;;;;;9.10;7.53;;;;;;;20.34;42.59;95780.69;10341467;28;20050;-83
2022/12/15 22:45:33;;;;;;;9.18;7.72;;;;;;;20.34;42.55;95779.94;10347746;28;20053;-83
2022/12/15 22:50:52;;;;;;;10.00;8.00;;;;;;;20.33;42.49;95789.19;10349594;28;20050;-83
2022/12/15 22:56:25;;;;;;;8.30;7.15;;;;;;;20.32;42.63;95785.69;10341586;28;20049;-83
2022/12/15 23:01:45;;;;;;;9.68;8.00;;;;;;;20.30;42.45;95779.06;10321529;28;20153;-83
2022/12/15 23:07:06;;;;;;;9.35;7.45;;;;;;;20.30;42.61;95777.13;10339910;28;20054;-82
2022/12/15 23:12:26;;;;;;;8.38;7.20;;;;;;;20.26;42.57;95762.75;10375244;28;20049;-83
2022/12/15 23:17:45;;;;;;;9.57;7.55;;;;;;;20.26;42.26;95770.09;10348201;28;20058;-82
2022/12/15 23:23:05;;;;;;;8.63;7.28;;;;;;;20.24;42.49;95758.84;10332845;28;20050;-83
2022/12/15 23:28:26;;;;;;;9.95;7.28;;;;;;;20.22;42.58;95759.19;10328429;28;20054;-83
2022/12/15 23:33:45;;;;;;;8.77;7.28;;;;;;;20.20;42.75;95761.47;10357779;28;20468;-82
2022/12/15 23:39:05;;;;;;;8.02;6.90;;;;;;;20.20;42.46;95749.88;10335821;28;20038;-83
2022/12/15 23:44:25;;;;;;;8.68;6.82;;;;;;;20.18;42.36;95733.22;10354788;28;20053;-82
2022/12/15 23:49:45;;;;;;;8.52;7.57;;;;;;;20.14;42.57;95731.22;10356414;28;20612;-82
2022/12/15 23:55:08;;;;;;;13.60;7.80;;;;;;;20.12;42.52;95732.72;10331022;28;20046;-82
